createdAt,value
2018-06-18T00:10:43.567Z,62.30
2018-06-18T00:13:14.159Z,62.58
2018-06-18T00:15:43.947Z,62.65
2018-06-18T00:18:12.784Z,62.85
2018-06-18T00:20:41.561Z,62.97
2018-06-18T00:23:10.193Z,63.11
2018-06-18T00:25:38.693Z,63.17
2018-06-18T00:28:07.179Z,63.34
2018-06-18T00:30:35.831Z,63.58
2018-06-18T00:33:04.514Z,63.62
2018-06-18T00:35:33.170Z,63.70
2018-06-18T00:38:02.190Z,63.80
2018-06-18T00:40:30.776Z,63.84
2018-06-18T00:42:59.510Z,64.13
2018-06-18T00:45:28.362Z,64.24
2018-06-18T00:47:56.799Z,64.37
2018-06-18T00:50:24.961Z,64.42
2018-06-18T00:52:53.401Z,64.84
2018-06-18T00:55:33.295Z,64.94
2018-06-18T00:58:01.858Z,64.97
2018-06-18T01:00:30.344Z,65.13
2018-06-18T01:02:58.928Z,65.28
2018-06-18T01:05:27.305Z,65.35
2018-06-18T01:07:55.764Z,65.69
2018-06-18T01:10:24.781Z,65.62
2018-06-18T01:12:53.204Z,65.57
2018-06-18T01:15:22.097Z,65.54
2018-06-18T01:17:50.509Z,65.68
2018-06-18T01:20:18.953Z,65.62
2018-06-18T01:23:56.005Z,65.63
2018-06-18T01:26:24.561Z,65.69
2018-06-18T01:28:53.316Z,65.84
2018-06-18T01:31:22.085Z,65.90
2018-06-18T01:33:51.536Z,65.99
2018-06-18T01:36:20.088Z,66.53
2018-06-18T01:38:48.982Z,67.63
2018-06-18T01:41:17.325Z,67.55
2018-06-18T01:43:45.764Z,68.00
2018-06-18T01:46:14.767Z,68.07
2018-06-18T01:48:46.003Z,68.10
2018-06-18T01:51:16.970Z,68.18
2018-06-18T01:53:48.417Z,68.74
2018-06-18T01:56:16.749Z,68.83
2018-06-18T01:58:45.228Z,68.88
2018-06-18T02:01:13.564Z,68.94
2018-06-18T02:03:41.644Z,69.43
2018-06-18T02:06:10.280Z,69.63
2018-06-18T02:08:39.068Z,69.69
2018-06-18T02:11:07.420Z,69.79
2018-06-18T02:13:35.924Z,69.91
2018-06-18T02:16:04.404Z,70.03
2018-06-18T02:18:33.071Z,70.25
2018-06-18T02:21:01.514Z,70.15
2018-06-18T02:23:30.425Z,70.17
2018-06-18T02:25:58.860Z,70.09
2018-06-18T02:28:32.627Z,70.20
2018-06-18T02:31:06.711Z,70.15
2018-06-18T02:33:40.517Z,70.12
2018-06-18T02:36:14.413Z,70.12
2018-06-18T02:39:14.308Z,70.31
2018-06-18T02:41:43.632Z,70.51
2018-06-18T02:44:12.192Z,70.96
2018-06-18T02:46:40.795Z,71.24
2018-06-18T02:49:09.717Z,71.35
2018-06-18T02:51:38.258Z,71.50
2018-06-18T02:54:07.354Z,71.65
2018-06-18T02:56:57.677Z,71.66
2018-06-18T02:59:25.985Z,71.56
2018-06-18T03:01:54.633Z,71.08
2018-06-18T03:04:23.468Z,70.69
2018-06-18T03:06:51.988Z,70.20
2018-06-18T03:09:20.480Z,70.10
2018-06-18T03:11:49.056Z,69.82
2018-06-18T03:14:18.651Z,69.72
2018-06-18T03:16:46.749Z,69.30
2018-06-18T03:19:20.784Z,69.17
2018-06-18T03:21:54.496Z,68.87
2018-06-18T03:24:28.946Z,68.60
2018-06-18T03:27:02.933Z,68.34
2018-06-18T03:29:33.011Z,68.26
2018-06-18T03:32:03.807Z,68.19
2018-06-18T03:34:32.521Z,68.01
2018-06-18T03:37:01.084Z,67.85
2018-06-18T03:39:29.380Z,67.75
2018-06-18T03:41:58.051Z,67.67
2018-06-18T03:44:30.652Z,67.63
2018-06-18T03:47:02.096Z,67.63
2018-06-18T03:49:30.448Z,67.68
2018-06-18T03:51:59.284Z,67.62
2018-06-18T03:54:27.768Z,67.56
2018-06-18T03:56:56.264Z,67.74
2018-06-18T03:59:24.943Z,67.97
2018-06-18T04:04:06.906Z,68.10
2018-06-18T04:06:41.015Z,68.57
2018-06-18T04:09:14.744Z,68.85
2018-06-18T04:11:48.588Z,69.27
2018-06-18T04:14:17.125Z,69.31
2018-06-18T04:16:45.638Z,69.35
2018-06-18T04:19:14.607Z,69.39
2018-06-18T04:21:43.355Z,69.42
2018-06-18T04:24:11.477Z,69.47
2018-06-18T04:26:40.533Z,69.48
2018-06-18T04:29:08.826Z,69.65
2018-06-18T04:31:37.301Z,69.57
2018-06-18T04:34:19.292Z,69.65
2018-06-18T04:36:47.652Z,69.67
2018-06-18T04:39:16.234Z,69.71
2018-06-18T04:41:50.388Z,69.53
2018-06-18T04:44:23.879Z,69.44
2018-06-18T04:46:58.033Z,69.41
2018-06-18T04:49:31.872Z,69.32
2018-06-18T04:52:00.082Z,69.25
2018-06-18T04:54:28.908Z,69.27
2018-06-18T04:56:57.256Z,69.18
2018-06-18T04:59:25.648Z,69.22
2018-06-18T05:01:54.603Z,69.32
2018-06-18T05:04:22.890Z,69.28
2018-06-18T05:06:51.244Z,68.98
2018-06-18T05:09:33.200Z,68.70
2018-06-18T05:12:01.688Z,68.42
2018-06-18T05:14:29.715Z,68.11
2018-06-18T05:16:58.835Z,67.71
2018-06-18T05:19:27.055Z,67.41
2018-06-18T05:21:55.186Z,67.37
2018-06-18T05:24:23.628Z,67.24
2018-06-18T05:26:53.488Z,67.04
2018-06-18T05:29:23.481Z,66.53
2018-06-18T05:31:52.508Z,66.21
2018-06-18T05:34:23.068Z,66.29
2018-06-18T05:36:52.200Z,66.47
2018-06-18T05:39:20.664Z,66.52
2018-06-18T05:41:49.034Z,66.29
2018-06-18T05:44:17.368Z,66.03
2018-06-18T05:46:46.012Z,65.79
2018-06-18T05:49:16.263Z,65.48
2018-06-18T05:51:44.573Z,65.06
2018-06-18T05:54:13.025Z,64.73
2018-06-18T05:56:41.037Z,64.61
2018-06-18T05:59:09.476Z,64.33
2018-06-18T06:01:38.143Z,63.67
2018-06-18T06:04:06.408Z,62.71
2018-06-18T06:06:34.504Z,62.58
2018-06-18T06:09:02.924Z,62.51
2018-06-18T06:11:31.276Z,62.63
2018-06-18T06:13:59.507Z,62.64
2018-06-18T06:16:27.809Z,62.82
2018-06-18T06:18:55.988Z,63.13
2018-06-18T06:21:24.136Z,63.46
2018-06-18T06:23:52.527Z,63.63
2018-06-18T06:26:20.832Z,63.98
2018-06-18T06:28:49.132Z,64.23
2018-06-18T06:31:17.672Z,64.14
2018-06-18T06:33:45.864Z,64.24
2018-06-18T06:36:14.508Z,63.90
2018-06-18T06:38:42.619Z,63.19
2018-06-18T06:41:11.200Z,63.03
2018-06-18T06:43:39.532Z,62.95
2018-06-18T06:46:07.666Z,62.03
2018-06-18T06:48:35.848Z,60.88
2018-06-18T06:51:04.089Z,60.15
2018-06-18T06:53:32.673Z,59.99
2018-06-18T06:56:01.324Z,59.45
2018-06-18T06:58:29.501Z,59.17
2018-06-18T07:00:57.520Z,58.89
2018-06-18T07:03:26.368Z,58.91
2018-06-18T07:05:54.755Z,57.27
2018-06-18T07:08:22.845Z,57.08
2018-06-18T07:10:51.795Z,57.27
2018-06-18T07:13:20.580Z,56.55
2018-06-18T07:15:48.961Z,56.05
2018-06-18T07:18:17.407Z,56.11
2018-06-18T07:20:45.459Z,55.76
2018-06-18T07:23:14.036Z,55.69
2018-06-18T07:25:42.390Z,55.63
2018-06-18T07:28:10.431Z,54.83
2018-06-18T07:30:38.495Z,54.37
2018-06-18T07:33:07.300Z,54.19
2018-06-18T07:35:35.805Z,53.63
2018-06-18T07:38:04.270Z,53.31
2018-06-18T07:40:33.533Z,52.69
2018-06-18T07:43:01.590Z,51.02
2018-06-18T07:45:29.828Z,50.49
2018-06-18T07:47:58.581Z,51.17
2018-06-18T07:50:26.627Z,51.22
2018-06-18T07:52:54.666Z,50.58
2018-06-18T07:55:23.393Z,50.76
2018-06-18T07:57:51.440Z,49.29
2018-06-18T08:00:19.784Z,48.95
2018-06-18T08:02:48.312Z,49.34
2018-06-18T08:05:16.411Z,49.06
2018-06-18T08:07:44.882Z,48.67
2018-06-18T08:10:13.196Z,49.23
2018-06-18T08:12:41.281Z,49.82
2018-06-18T08:15:09.336Z,49.76
2018-06-18T08:17:37.814Z,50.31
2018-06-18T08:20:05.983Z,49.88
2018-06-18T08:22:34.317Z,49.06
2018-06-18T08:25:03.089Z,47.55
2018-06-18T08:27:31.681Z,46.93
2018-06-18T08:30:00.204Z,46.09
2018-06-18T08:32:28.672Z,45.07
2018-06-18T08:34:57.249Z,44.17
2018-06-18T08:37:25.567Z,44.91
2018-06-18T08:39:54.156Z,45.41
2018-06-18T08:42:22.390Z,45.11
2018-06-18T08:44:50.589Z,44.88
2018-06-18T08:47:18.694Z,44.13
2018-06-18T08:49:53.518Z,43.99
2018-06-18T08:52:27.118Z,44.17
2018-06-18T08:55:00.967Z,44.39
2018-06-18T08:57:34.791Z,43.65
2018-06-18T09:00:09.411Z,42.52
2018-06-18T09:02:42.024Z,42.37
2018-06-18T09:05:11.528Z,42.32
2018-06-18T09:07:45.482Z,42.94
2018-06-18T09:10:13.650Z,43.02
2018-06-18T09:12:42.104Z,42.60
2018-06-18T09:15:14.602Z,41.92
2018-06-18T09:17:42.660Z,41.29
2018-06-18T09:20:10.747Z,40.75
2018-06-18T09:22:39.295Z,41.66
2018-06-18T09:25:07.771Z,41.75
2018-06-18T09:27:36.940Z,41.76
2018-06-18T09:30:09.251Z,40.76
2018-06-18T09:32:37.531Z,41.49
2018-06-18T09:35:05.796Z,40.95
2018-06-18T09:37:34.473Z,40.69
2018-06-18T09:40:02.858Z,42.02
2018-06-18T09:42:31.273Z,40.92
2018-06-18T09:44:59.601Z,40.71
2018-06-18T09:47:27.688Z,40.19
2018-06-18T09:50:01.648Z,40.12
2018-06-18T09:52:36.132Z,39.36
2018-06-18T09:55:11.160Z,38.75
2018-06-18T09:57:45.084Z,38.94
2018-06-18T10:00:27.310Z,39.26
2018-06-18T10:02:56.247Z,39.80
2018-06-18T10:05:25.208Z,39.94
2018-06-18T10:07:53.253Z,39.08
2018-06-18T10:10:21.482Z,39.13
2018-06-18T10:12:49.789Z,39.21
2018-06-18T10:15:17.922Z,39.16
2018-06-18T10:17:46.342Z,40.17
2018-06-18T10:20:14.455Z,41.13
2018-06-18T10:22:42.480Z,40.46
2018-06-18T10:25:10.528Z,40.02
2018-06-18T10:27:38.673Z,40.50
2018-06-18T10:30:06.769Z,40.12
2018-06-18T10:32:40.514Z,40.24
2018-06-18T10:35:14.049Z,39.48
2018-06-18T10:37:47.929Z,39.32
2018-06-18T10:40:21.583Z,39.29
2018-06-18T10:42:55.672Z,39.17
2018-06-18T10:45:24.667Z,39.17
2018-06-18T10:47:53.256Z,39.21
2018-06-18T10:50:21.681Z,38.24
2018-06-18T11:36:30.234Z,34.93
2018-06-18T11:38:58.318Z,35.07
2018-06-18T11:41:27.015Z,35.14
2018-06-18T11:43:55.181Z,34.88
2018-06-18T11:46:23.311Z,35.11
2018-06-18T11:48:51.719Z,35.41
2018-06-18T11:51:19.967Z,35.28
2018-06-18T11:53:48.088Z,35.57
2018-06-18T11:56:16.196Z,35.51
2018-06-18T11:58:50.080Z,34.79
2018-06-18T12:01:24.101Z,35.47
2018-06-18T12:03:57.506Z,35.96
2018-06-18T12:06:31.508Z,36.27
2018-06-18T12:09:04.962Z,35.91
2018-06-18T12:11:34.037Z,36.33
2018-06-18T12:14:03.187Z,37.02
2018-06-18T12:16:36.281Z,37.18
2018-06-18T12:19:27.550Z,37.38
2018-06-18T12:25:17.286Z,37.80
2018-06-18T12:27:46.285Z,37.25
2018-06-18T12:30:14.838Z,37.79
2018-06-18T12:32:43.341Z,38.00
2018-06-18T12:35:12.273Z,38.08
2018-06-18T12:37:40.679Z,38.22
2018-06-18T12:40:11.092Z,37.17
2018-06-18T12:42:40.144Z,37.48
2018-06-18T12:45:14.841Z,36.58
2018-06-18T12:47:48.858Z,37.02
2018-06-18T12:50:23.081Z,37.32
2018-06-18T12:52:56.597Z,37.05
2018-06-18T12:55:30.010Z,36.95
2018-06-18T12:57:59.074Z,36.19
2018-06-18T13:00:27.157Z,35.85
2018-06-18T13:02:59.845Z,36.12
2018-06-18T13:05:29.431Z,36.69
2018-06-18T13:07:57.466Z,36.45
2018-06-18T13:10:25.829Z,36.41
2018-06-18T13:12:54.214Z,36.22
2018-06-18T13:15:22.424Z,36.57
2018-06-18T13:17:51.099Z,37.49
2018-06-18T13:20:19.384Z,37.36
2018-06-18T13:22:47.595Z,37.96
2018-06-18T13:25:15.746Z,38.22
2018-06-18T13:27:49.859Z,38.95
2018-06-18T13:30:18.084Z,39.38
2018-06-18T13:32:53.221Z,39.22
2018-06-18T13:35:23.175Z,39.67
2018-06-18T13:37:56.903Z,39.85
2018-06-18T13:40:31.343Z,40.45
2018-06-18T13:43:04.781Z,40.97
2018-06-18T13:45:44.036Z,41.03
2018-06-18T13:48:17.716Z,41.19
2018-06-18T13:50:45.922Z,40.52
2018-06-18T13:53:14.290Z,40.53
2018-06-18T13:55:42.546Z,40.54
2018-06-18T13:58:11.169Z,40.32
2018-06-18T14:00:39.347Z,40.32
2018-06-18T14:03:07.967Z,39.80
2018-06-18T14:05:36.181Z,39.32
2018-06-18T14:08:05.024Z,38.78
2018-06-18T14:10:33.724Z,38.36
2018-06-18T14:13:01.831Z,37.26
2018-06-18T14:15:30.190Z,37.28
2018-06-18T14:17:58.502Z,38.12
2018-06-18T14:20:27.237Z,38.61
2018-06-18T14:22:55.869Z,38.60
2018-06-18T14:25:23.978Z,39.18
2018-06-18T14:27:53.036Z,38.98
2018-06-18T14:30:26.536Z,39.74
2018-06-18T14:33:00.480Z,38.98
2018-06-18T14:35:38.110Z,38.15
2018-06-18T14:38:12.774Z,37.85
2018-06-18T14:40:41.241Z,38.30
2018-06-18T14:43:10.422Z,38.64
2018-06-18T14:45:38.986Z,39.23
2018-06-18T14:48:07.782Z,39.40
2018-06-18T14:50:36.846Z,39.96
2018-06-18T14:53:06.503Z,39.94
2018-06-18T14:55:34.889Z,40.48
2018-06-18T14:58:04.050Z,40.88
2018-06-18T15:00:33.635Z,40.98
2018-06-18T15:03:04.651Z,40.45
2018-06-18T15:05:39.666Z,40.63
2018-06-18T15:08:11.134Z,39.08
2018-06-18T15:10:46.375Z,39.47
2018-06-18T15:13:16.979Z,39.11
2018-06-18T15:15:53.870Z,39.61
2018-06-18T15:18:22.642Z,40.18
2018-06-18T15:20:53.835Z,40.16
2018-06-18T15:23:23.402Z,41.01
2018-06-18T15:25:52.762Z,40.72
2018-06-18T15:28:23.473Z,40.34
2018-06-18T15:30:52.456Z,40.22
2018-06-18T15:33:21.213Z,40.16
2018-06-18T15:35:50.146Z,40.74
2018-06-18T15:38:24.512Z,40.72
2018-06-18T15:40:54.628Z,41.29
2018-06-18T15:43:25.533Z,41.47
2018-06-18T15:45:55.636Z,41.54
2018-06-18T15:48:26.689Z,41.31
2018-06-18T15:50:55.336Z,41.73
2018-06-18T15:53:25.201Z,41.05
2018-06-18T15:55:54.809Z,39.88
2018-06-18T15:58:25.093Z,40.05
2018-06-18T16:00:54.965Z,40.33
2018-06-18T16:03:23.977Z,40.37
2018-06-18T16:05:54.774Z,40.42
2018-06-18T16:08:23.645Z,40.20
2018-06-18T16:10:52.684Z,40.50
2018-06-18T16:13:22.973Z,41.33
2018-06-18T16:15:56.133Z,40.62
2018-06-18T16:18:26.410Z,41.01
2018-06-18T16:20:54.812Z,41.33
2018-06-18T16:23:24.571Z,41.29
2018-06-18T16:25:54.120Z,40.92
2018-06-18T16:28:23.226Z,41.04
2018-06-18T16:30:51.756Z,41.24
2018-06-18T16:33:20.966Z,40.91
2018-06-18T16:35:49.181Z,41.64
2018-06-18T16:38:17.288Z,41.87
2018-06-18T16:40:46.730Z,41.91
2018-06-18T16:43:16.979Z,41.95
2018-06-18T16:45:46.227Z,41.61
2018-06-18T16:48:15.670Z,41.49
2018-06-18T16:50:44.722Z,42.49
2018-06-18T16:53:14.891Z,42.70
2018-06-18T16:55:45.015Z,42.68
2018-06-18T16:58:14.815Z,42.72
2018-06-18T17:00:43.233Z,42.35
2018-06-18T17:03:12.232Z,42.73
2018-06-18T17:05:40.697Z,42.03
2018-06-18T17:08:08.803Z,42.24
2018-06-18T17:10:37.256Z,42.12
2018-06-18T17:13:05.789Z,42.08
2018-06-18T17:15:34.548Z,41.82
2018-06-18T17:18:03.420Z,41.66
2018-06-18T17:20:31.682Z,41.67
2018-06-18T17:23:00.191Z,42.16
2018-06-18T17:25:30.884Z,41.96
2018-06-18T17:27:58.995Z,42.29
2018-06-18T17:30:28.064Z,41.74
2018-06-18T17:32:56.871Z,41.84
2018-06-18T17:35:25.060Z,41.84
2018-06-18T17:37:54.421Z,41.57
2018-06-18T17:40:22.827Z,41.81
2018-06-18T17:42:50.992Z,41.73
2018-06-18T17:45:19.533Z,42.32
2018-06-18T17:47:47.784Z,41.45
2018-06-18T17:50:15.989Z,41.38
2018-06-18T17:52:44.335Z,41.46
2018-06-18T17:55:12.376Z,41.88
2018-06-18T17:57:40.541Z,42.16
2018-06-18T18:00:09.030Z,41.85
2018-06-18T18:02:37.171Z,42.18
2018-06-18T18:05:05.481Z,42.35
2018-06-18T18:07:34.036Z,42.17
2018-06-18T18:10:02.408Z,42.04
2018-06-18T18:12:30.517Z,42.33
2018-06-18T18:14:59.256Z,42.55
2018-06-18T18:17:27.794Z,42.61
2018-06-18T18:19:56.159Z,42.75
2018-06-18T18:22:24.882Z,42.86
2018-06-18T18:24:54.186Z,43.11
2018-06-18T18:27:23.783Z,43.05
2018-06-18T18:29:52.173Z,43.22
2018-06-18T18:32:20.601Z,43.47
2018-06-18T18:34:48.893Z,43.68
2018-06-18T18:37:17.451Z,43.99
2018-06-18T18:39:45.525Z,44.09
2018-06-18T18:42:14.634Z,44.48
2018-06-18T18:44:43.093Z,44.96
2018-06-18T18:47:11.483Z,45.31
2018-06-18T18:49:39.918Z,45.56
2018-06-18T18:52:08.250Z,45.91
2018-06-18T18:55:58.107Z,46.25
2018-06-18T18:59:42.605Z,46.63
2018-06-18T19:02:10.846Z,46.83
2018-06-18T19:04:57.624Z,47.07
2018-06-18T19:07:35.216Z,47.33
2018-06-18T19:10:36.354Z,47.49
2018-06-18T19:13:07.262Z,47.72
2018-06-18T19:15:35.923Z,48.00
2018-06-18T19:18:05.730Z,48.31
2018-06-18T19:20:39.669Z,48.52
2018-06-18T19:23:08.239Z,48.66
2018-06-18T19:25:36.539Z,48.92
2018-06-18T19:28:08.124Z,49.14
2018-06-18T19:30:53.600Z,49.27
2018-06-18T19:33:26.826Z,49.74
2018-06-18T19:35:56.373Z,50.07
2018-06-18T19:38:25.381Z,50.37
2018-06-18T19:40:54.407Z,50.35
2018-06-18T19:43:23.354Z,50.43
2018-06-18T19:45:54.606Z,50.57
2018-06-18T19:48:27.295Z,50.72
2018-06-18T19:50:55.872Z,50.95
2018-06-18T19:53:24.525Z,51.05
2018-06-18T19:55:52.849Z,51.28
2018-06-18T19:58:21.289Z,51.49
2018-06-18T20:00:52.180Z,51.68
2018-06-18T20:03:21.976Z,51.93
2018-06-18T20:05:54.269Z,52.02
2018-06-18T20:08:38.461Z,52.22
2018-06-18T20:11:10.144Z,52.40
2018-06-18T20:13:48.354Z,52.70
2018-06-18T20:16:17.879Z,52.78
2018-06-18T20:18:47.230Z,53.03
2018-06-18T20:21:17.283Z,53.08
2018-06-18T20:23:45.493Z,53.12
2018-06-18T20:26:16.673Z,53.32
2018-06-18T20:28:44.781Z,53.37
2018-06-18T20:31:13.443Z,53.47
2018-06-18T20:33:45.354Z,53.51
2018-06-18T20:36:15.710Z,53.58
2018-06-18T20:38:44.247Z,53.59
2018-06-18T20:41:12.327Z,53.74
2018-06-18T20:43:54.203Z,53.87
2018-06-18T20:46:22.942Z,54.02
2018-06-18T20:48:51.497Z,54.20
2018-06-18T20:51:19.684Z,54.36
2018-06-18T20:53:48.389Z,54.49
2018-06-18T20:56:16.623Z,54.68
2018-06-18T20:58:45.522Z,54.84
2018-06-18T21:01:15.015Z,54.91
2018-06-18T21:03:43.383Z,55.18
2018-06-18T21:06:12.043Z,55.33
2018-06-18T21:08:45.069Z,55.58
2018-06-18T21:11:13.157Z,55.64
2018-06-18T21:13:41.185Z,55.78
2018-06-18T21:16:10.735Z,55.94
2018-06-18T21:18:40.677Z,56.07
2018-06-18T21:21:08.829Z,56.13
2018-06-18T21:23:37.164Z,56.31
2018-06-18T21:26:05.429Z,56.54
2018-06-18T21:28:33.497Z,56.70
2018-06-18T21:31:02.770Z,56.84
2018-06-18T21:33:30.910Z,57.01
2018-06-18T21:35:59.096Z,57.04
2018-06-18T21:38:28.951Z,57.23
2018-06-18T21:40:58.116Z,57.31
2018-06-18T21:43:26.821Z,57.50
2018-06-18T21:45:55.135Z,57.67
2018-06-18T21:48:24.243Z,57.81
2018-06-18T21:50:53.448Z,57.89
2018-06-18T21:53:22.115Z,57.91
2018-06-18T21:55:50.348Z,57.96
2018-06-18T21:58:18.801Z,57.98
2018-06-18T22:00:49.161Z,58.02
2018-06-18T22:03:18.014Z,57.93
2018-06-18T22:05:46.368Z,58.07
2018-06-18T22:08:16.283Z,58.17
2018-06-18T22:10:44.989Z,58.20
2018-06-18T22:13:13.118Z,58.40
2018-06-18T22:15:41.316Z,58.51
2018-06-18T22:18:09.662Z,58.66
2018-06-18T22:20:38.195Z,58.87
2018-06-18T22:23:07.184Z,59.16
2018-06-18T22:25:35.280Z,59.28
2018-06-18T22:28:05.294Z,59.42
2018-06-18T22:30:33.690Z,59.52
2018-06-18T22:33:03.990Z,59.55
2018-06-18T22:35:32.746Z,59.63
2018-06-18T22:38:06.340Z,59.61
2018-06-18T22:40:34.555Z,59.77
2018-06-18T22:43:02.712Z,60.09
2018-06-18T22:45:31.484Z,60.28
2018-06-18T22:47:59.739Z,60.20
2018-06-18T22:50:28.435Z,60.31
2018-06-18T22:52:56.997Z,60.31
2018-06-18T22:55:25.451Z,60.45
2018-06-18T22:57:53.543Z,60.54
2018-06-18T23:00:21.963Z,60.81
2018-06-18T23:02:50.250Z,60.92
2018-06-18T23:05:18.335Z,61.04
2018-06-18T23:07:46.717Z,61.24
2018-06-18T23:10:14.871Z,61.42
2018-06-18T23:12:45.241Z,61.66
2018-06-18T23:15:14.514Z,61.85
2018-06-18T23:17:42.619Z,61.99
2018-06-18T23:20:10.862Z,62.12
2018-06-18T23:22:39.623Z,62.15
2018-06-18T23:25:08.149Z,62.52
2018-06-18T23:27:36.618Z,62.71
2018-06-18T23:30:05.772Z,63.03
2018-06-18T23:32:34.079Z,63.09
2018-06-18T23:35:02.937Z,63.16
2018-06-18T23:37:31.072Z,63.56
2018-06-18T23:39:59.478Z,63.70
2018-06-18T23:42:29.142Z,63.56
2018-06-18T23:44:58.204Z,64.08
2018-06-18T23:47:26.737Z,64.44
2018-06-18T23:49:54.987Z,64.55
2018-06-18T23:52:23.479Z,64.70
2018-06-18T23:54:51.909Z,64.72
2018-06-18T23:57:20.235Z,64.76
2018-06-18T23:59:49.228Z,64.91
